Rosamond, CA

5:00 PM PST on January 20, 2017 (GMT -0800)
Rosamond - KI6VBC | | Change Station
Active Advisory: Gale Warning

Elev 2415 ft 34.87 °N, 118.15 °W | Updated 21 seconds ago

Overcast
Overcast
45.7 °F
Feels Like 42 °F
N
8.0
Wind Variable Wind from North
Gusts 8.0 mph

Today
High -- | Low -- °F
--% Chance of Precip.
Yesterday
High -- | Low -- °F
Precip. -- in
Pressure 29.43 in
Visibility 10.0 miles
Clouds Few 6500 ft
Windchill 42 °F
Dew Point 39 °F
Humidity 77%
Rainfall 0.56 in
Snow Depth Not available.
6:58 AM 5:09 PM
Last Quarter, 40% visible
METAR KWJF 210056Z AUTO 27017KT 10SM FEW065 07/03 A2941 RMK AO2 SLP964 T00670028
Pressure 29.43 in
Visibility 10.0 miles
Clouds Few 6500 ft
Windchill 42 °F
Dew Point 39 °F
Humidity 77%
Rainfall 0.56 in
Snow Depth Not available.
6:58 AM 5:09 PM
Last Quarter, 40% visible
METAR KWJF 210056Z AUTO 27017KT 10SM FEW065 07/03 A2941 RMK AO2 SLP964 T00670028

Get Your Daily Forecast Email!

Thanks for signing up!

Be on the lookout for a verification email in your inbox.

You'll start receiving the daily forecast at 8 AM.

×

10-Day Weather Forecast

Almanac

Astronomy

Jan. 20, 2017 Rise Set
Actual Time
Civil Twilight
Nautical Twilight
Astronomical Twilight
Moon
Length of Visible Light
Length of Day
Tomorrow will be .
, % of the Moon is Illuminated

Today's Extremes

State Highs State Lows

Community

WunderPhotos

Upload Photos

1,962,540 photos uploaded!

WunderBlog® & News

Nearby

Air Quality

  Air Quality AQ Index Pollutant
Not available.

Snow Depth

Station Depth Elevation

Earthquake Activity

City Distance Mag. Time & Date
Minimum magnitude displayed is 2.5.

Coastal Water Temperatures

Place Temperature

Stations

Nearby Weather Stations

Station Location Temp. Windchill Dew Point Humidity Wind Precip. Elev Updated Type
                   

Watches & Warnings

Gale Warning
Issued: 2:16 PM PST Jan. 20, 2017 – National Weather Service

... Gale Warning remains in effect until 9 PM PST this evening...

* winds... west winds 20 to 30 kt with gusts to 40 kt are expected
when winds are strongest.

* Seas... combined seas of 9 to 12 feet with periods around 9
seconds are expected when waves are largest.

See the coastal waters forecast (cwflox) for more details.

Precautionary/preparedness actions...

A Gale Warning means winds of 34 to 47 knots are imminent or
occuring. Operating a vessel in gale conditions requires
experience and properly equipped vessels. It is highly
recommended that mariners without the proper experience seek safe
Harbor prior to the onset of gale conditions.